createdAt,value
2022-07-25T00:03:36.211Z,5.20
2022-07-25T00:06:13.429Z,4.82
2022-07-25T00:08:54.380Z,5.10
2022-07-25T00:11:33.606Z,4.93
2022-07-25T00:14:01.914Z,5.25
2022-07-25T00:16:29.526Z,4.75
2022-07-25T00:18:57.211Z,5.03
2022-07-25T00:21:30.334Z,5.07
2022-07-25T00:23:59.827Z,5.30
2022-07-25T00:26:27.032Z,5.68
2022-07-25T00:28:55.816Z,5.82
2022-07-25T00:31:23.454Z,6.05
2022-07-25T00:33:51.960Z,5.35
2022-07-25T00:36:20.180Z,5.32
2022-07-25T00:38:49.042Z,5.60
2022-07-25T00:41:19.498Z,5.55
2022-07-25T00:46:18.856Z,5.95
2022-07-25T00:48:47.281Z,5.75
2022-07-25T00:51:17.792Z,6.00
2022-07-25T00:53:47.835Z,6.25
2022-07-25T00:56:17.328Z,5.80
2022-07-25T00:58:46.934Z,6.07
2022-07-25T01:01:16.181Z,5.88
2022-07-25T01:03:43.910Z,6.25
2022-07-25T01:06:13.462Z,5.60
2022-07-25T01:08:42.205Z,7.47
2022-07-25T01:11:11.023Z,6.50
2022-07-25T01:13:38.591Z,6.38
2022-07-25T01:16:06.852Z,6.28
2022-07-25T01:18:36.794Z,7.53
2022-07-25T01:21:05.739Z,7.53
2022-07-25T01:23:33.608Z,7.00
2022-07-25T01:26:01.021Z,7.70
2022-07-25T01:28:29.087Z,7.00
2022-07-25T01:30:56.687Z,7.93
2022-07-25T01:33:24.115Z,8.15
2022-07-25T01:35:54.928Z,8.57
2022-07-25T01:38:22.484Z,8.85
2022-07-25T01:40:51.368Z,9.13
2022-07-25T01:43:18.977Z,9.52
2022-07-25T01:45:47.349Z,9.52
2022-07-25T01:48:15.460Z,10.93
2022-07-25T01:50:45.880Z,11.57
2022-07-25T01:53:15.992Z,10.15
2022-07-25T01:55:47.888Z,9.18
2022-07-25T01:58:17.054Z,10.48
2022-07-25T02:00:51.138Z,10.75
2022-07-25T02:03:33.068Z,11.43
2022-07-25T02:06:10.016Z,10.63
2022-07-25T02:08:37.464Z,10.18
2022-07-25T02:11:05.332Z,10.88
2022-07-25T02:13:32.559Z,10.80
2022-07-25T02:16:00.831Z,11.43
2022-07-25T02:18:28.185Z,11.82
2022-07-25T02:20:58.678Z,11.75
2022-07-25T02:23:26.522Z,10.63
2022-07-25T02:25:58.852Z,10.63
2022-07-25T02:28:26.352Z,10.18
2022-07-25T02:30:54.847Z,10.77
2022-07-25T02:33:23.475Z,11.38
2022-07-25T02:35:53.935Z,11.32
2022-07-25T02:38:26.561Z,11.60
2022-07-25T02:40:56.130Z,12.05
2022-07-25T02:43:23.698Z,12.38
2022-07-25T02:45:51.800Z,12.73
2022-07-25T02:48:19.693Z,11.45
2022-07-25T02:50:47.459Z,11.90
2022-07-25T02:53:28.965Z,12.43
2022-07-25T02:56:05.586Z,10.77
2022-07-25T02:58:33.543Z,11.55
2022-07-25T03:01:00.925Z,12.18
2022-07-25T03:03:29.295Z,10.98
2022-07-25T03:05:56.862Z,12.77
2022-07-25T03:08:24.535Z,12.30
2022-07-25T03:10:52.573Z,11.77
2022-07-25T03:13:20.090Z,11.27
2022-07-25T03:15:48.258Z,12.15
2022-07-25T03:18:17.227Z,11.75
2022-07-25T03:20:46.503Z,12.70
2022-07-25T03:23:13.853Z,12.57
2022-07-25T03:25:41.671Z,11.98
2022-07-25T03:28:09.478Z,12.02
2022-07-25T03:30:37.570Z,13.25
2022-07-25T03:33:04.973Z,12.20
2022-07-25T03:35:35.310Z,11.88
2022-07-25T03:38:03.142Z,12.63
2022-07-25T03:40:34.306Z,12.07
2022-07-25T03:43:02.605Z,11.95
2022-07-25T03:45:33.606Z,12.25
2022-07-25T03:48:02.462Z,11.73
2022-07-25T03:50:30.156Z,12.40
2022-07-25T03:53:01.512Z,11.68
2022-07-25T03:55:30.369Z,10.75
2022-07-25T03:58:01.630Z,11.73
2022-07-25T04:00:29.347Z,11.48
2022-07-25T04:02:57.532Z,12.18
2022-07-25T04:05:25.349Z,12.35
2022-07-25T04:07:52.982Z,12.00
2022-07-25T04:10:21.238Z,11.48
2022-07-25T04:12:50.465Z,12.50
2022-07-25T04:15:18.097Z,12.15
2022-07-25T04:17:48.757Z,11.20
2022-07-25T04:20:19.873Z,11.77
2022-07-25T04:22:52.878Z,11.70
2022-07-25T04:25:21.065Z,10.82
2022-07-25T04:27:48.808Z,11.57
2022-07-25T04:30:24.713Z,11.63
2022-07-25T04:32:52.696Z,11.82
2022-07-25T04:35:20.915Z,11.75
2022-07-25T04:37:48.617Z,11.88
2022-07-25T04:40:19.960Z,12.32
2022-07-25T04:42:47.362Z,12.13
2022-07-25T04:45:17.767Z,12.18
2022-07-25T04:47:47.640Z,12.85
2022-07-25T04:50:24.499Z,12.20
2022-07-25T04:52:53.089Z,11.38
2022-07-25T04:55:21.972Z,11.35
2022-07-25T04:57:53.023Z,11.85
2022-07-25T05:00:25.303Z,11.18
2022-07-25T05:02:56.464Z,11.38
2022-07-25T05:05:24.026Z,13.05
2022-07-25T05:07:59.215Z,12.70
2022-07-25T05:10:29.661Z,12.68
2022-07-25T05:13:00.151Z,12.68
2022-07-25T05:15:29.014Z,12.23
2022-07-25T05:17:59.070Z,13.00
2022-07-25T05:20:26.804Z,13.25
2022-07-25T05:22:55.443Z,13.25
2022-07-25T05:25:28.939Z,12.80
2022-07-25T05:27:59.293Z,12.98
2022-07-25T05:30:27.093Z,12.63
2022-07-25T05:32:55.405Z,12.27
2022-07-25T05:35:22.925Z,12.88
2022-07-25T05:37:56.162Z,13.38
2022-07-25T05:40:28.129Z,12.90
2022-07-25T05:43:02.407Z,14.00
2022-07-25T05:45:34.946Z,13.60
2022-07-25T05:48:02.929Z,13.80
2022-07-25T05:50:32.967Z,13.70
2022-07-25T05:53:05.518Z,14.50
2022-07-25T05:55:40.163Z,13.27
2022-07-25T05:58:13.149Z,12.98
2022-07-25T06:00:43.316Z,12.70
2022-07-25T06:03:11.552Z,11.85
2022-07-25T06:05:39.535Z,13.18
2022-07-25T06:08:06.803Z,13.00
2022-07-25T06:10:36.627Z,12.23
2022-07-25T06:13:07.740Z,11.35
2022-07-25T06:15:38.149Z,11.50
2022-07-25T06:18:06.169Z,10.65
2022-07-25T06:20:34.626Z,10.25
2022-07-25T06:23:07.096Z,9.80
2022-07-25T06:25:34.783Z,9.70
2022-07-25T06:28:06.228Z,9.30
2022-07-25T06:30:46.027Z,10.10
2022-07-25T06:33:18.328Z,9.63
2022-07-25T06:35:49.634Z,9.45
2022-07-25T06:38:18.117Z,9.15
2022-07-25T06:40:47.279Z,8.77
2022-07-25T06:43:21.295Z,8.50
2022-07-25T06:45:48.959Z,8.80
2022-07-25T06:48:32.791Z,8.63
2022-07-25T06:51:04.323Z,8.85
2022-07-25T06:53:31.688Z,9.05
2022-07-25T06:56:17.579Z,9.07
2022-07-25T06:58:50.158Z,10.27
2022-07-25T07:01:21.377Z,9.45
2022-07-25T07:03:52.509Z,9.52
2022-07-25T07:06:26.422Z,9.68
2022-07-25T07:08:56.939Z,9.65
2022-07-25T07:11:28.166Z,9.55
2022-07-25T07:13:57.074Z,8.30
2022-07-25T07:16:26.187Z,9.85
2022-07-25T07:18:55.695Z,8.60
2022-07-25T07:21:28.315Z,8.60
2022-07-25T07:23:58.208Z,8.02
2022-07-25T07:26:26.464Z,7.63
2022-07-25T07:29:00.505Z,6.60
2022-07-25T07:31:28.492Z,6.10
2022-07-25T07:34:05.212Z,6.00
2022-07-25T07:36:33.173Z,6.00
2022-07-25T07:39:00.885Z,5.90
2022-07-25T07:41:31.508Z,5.50
2022-07-25T07:44:02.534Z,5.55
2022-07-25T07:46:31.080Z,5.57
2022-07-25T07:48:58.870Z,5.88
2022-07-25T07:51:26.966Z,5.57
2022-07-25T07:56:48.429Z,4.90
2022-07-25T07:59:18.631Z,5.15
2022-07-25T08:01:49.355Z,4.20
2022-07-25T08:04:20.272Z,4.15
2022-07-25T08:06:48.771Z,4.35
2022-07-25T08:09:18.754Z,4.20
2022-07-25T08:14:19.485Z,3.40
2022-07-25T08:16:52.802Z,3.20
2022-07-25T08:19:20.854Z,3.20
2022-07-25T08:21:49.541Z,2.30
2022-07-25T08:24:21.936Z,2.70
2022-07-25T08:26:51.473Z,2.20
2022-07-25T08:29:26.294Z,2.10
2022-07-25T08:31:55.593Z,1.70
2022-07-25T08:34:27.295Z,2.08
2022-07-25T08:36:55.328Z,1.60
2022-07-25T08:39:27.839Z,1.60
2022-07-25T08:42:00.078Z,1.70
2022-07-25T08:44:32.141Z,1.52
2022-07-25T08:47:01.747Z,1.30
2022-07-25T08:49:30.418Z,1.42
2022-07-25T08:51:59.172Z,1.50
2022-07-25T08:54:27.492Z,1.10
2022-07-25T08:56:55.405Z,1.25
2022-07-25T08:59:24.262Z,1.10
2022-07-25T09:01:54.149Z,1.00
2022-07-25T09:04:22.504Z,1.40
2022-07-25T09:06:52.608Z,1.10
2022-07-25T09:09:31.187Z,1.60
2022-07-25T09:11:59.305Z,1.02
2022-07-25T09:14:27.024Z,1.20
2022-07-25T09:16:54.781Z,0.90
2022-07-25T09:19:26.941Z,1.15
2022-07-25T09:24:48.239Z,1.10
2022-07-25T09:27:18.603Z,0.82
2022-07-25T09:29:47.554Z,1.20
2022-07-25T09:32:23.126Z,1.13
2022-07-25T09:34:51.696Z,1.13
2022-07-25T09:37:26.451Z,1.42
2022-07-25T09:39:54.033Z,1.10
2022-07-25T09:42:32.521Z,1.20
2022-07-25T09:45:13.941Z,1.33
2022-07-25T09:48:22.431Z,1.00
2022-07-25T09:51:04.920Z,0.80
2022-07-25T09:53:42.849Z,0.85
2022-07-25T09:56:11.841Z,1.00
2022-07-25T09:58:40.116Z,1.85
2022-07-25T10:01:08.238Z,1.30
2022-07-25T10:03:51.586Z,1.15
2022-07-25T10:06:36.934Z,1.30
2022-07-25T10:09:12.268Z,1.80
2022-07-25T10:11:40.791Z,1.60
2022-07-25T10:14:13.565Z,2.00
2022-07-25T10:16:50.931Z,2.08
2022-07-25T10:19:49.242Z,1.42
2022-07-25T10:25:17.033Z,1.20
2022-07-25T10:27:51.278Z,1.75
2022-07-25T10:30:24.539Z,2.03
2022-07-25T10:33:11.569Z,1.98
2022-07-25T10:35:39.529Z,1.58
2022-07-25T10:38:08.338Z,1.65
2022-07-25T10:40:46.812Z,1.95
2022-07-25T10:43:18.721Z,1.90
2022-07-25T10:45:55.320Z,1.42
2022-07-25T10:48:28.063Z,1.30
2022-07-25T10:51:02.022Z,1.80
2022-07-25T10:53:47.469Z,1.67
2022-07-25T10:56:24.839Z,1.80
2022-07-25T10:59:02.932Z,1.50
2022-07-25T11:01:33.432Z,1.73
2022-07-25T11:04:07.547Z,1.55
2022-07-25T11:06:36.095Z,1.80
2022-07-25T11:09:28.187Z,1.30
2022-07-25T11:11:58.379Z,1.50
2022-07-25T11:14:37.487Z,1.17
2022-07-25T11:17:21.600Z,1.10
2022-07-25T11:20:18.118Z,1.30
2022-07-25T11:22:54.074Z,1.30
2022-07-25T11:25:23.671Z,1.27
2022-07-25T11:28:04.558Z,1.42
2022-07-25T11:30:47.521Z,1.70
2022-07-25T11:33:17.894Z,1.70
2022-07-25T11:35:51.313Z,1.70
2022-07-25T11:38:26.120Z,2.00
2022-07-25T11:41:31.036Z,1.80
2022-07-25T11:44:11.914Z,1.80
2022-07-25T11:46:46.802Z,2.03
2022-07-25T11:49:18.541Z,1.90
2022-07-25T11:51:47.654Z,2.33
2022-07-25T11:54:16.905Z,2.10
2022-07-25T11:56:48.031Z,1.80
2022-07-25T11:59:17.346Z,2.42
2022-07-25T12:01:48.242Z,2.05
2022-07-25T12:04:20.354Z,2.00
2022-07-25T12:06:49.784Z,2.63
2022-07-25T12:09:22.554Z,2.33
2022-07-25T12:11:53.575Z,2.78
2022-07-25T12:14:24.089Z,2.00
2022-07-25T12:16:55.962Z,1.80
2022-07-25T12:19:23.937Z,1.88
2022-07-25T12:21:51.585Z,2.10
2022-07-25T12:24:23.345Z,2.22
2022-07-25T12:26:51.597Z,1.95
2022-07-25T12:29:19.399Z,2.20
2022-07-25T12:31:47.374Z,2.17
2022-07-25T12:34:16.853Z,2.13
2022-07-25T12:36:50.828Z,2.55
2022-07-25T12:39:18.452Z,2.00
2022-07-25T12:41:48.800Z,2.47
2022-07-25T12:46:50.412Z,2.45
2022-07-25T12:49:23.107Z,2.80
2022-07-25T12:51:56.116Z,2.67
2022-07-25T12:54:25.718Z,2.80
2022-07-25T12:56:53.198Z,2.53
2022-07-25T12:59:26.232Z,2.80
2022-07-25T13:01:54.392Z,2.42
2022-07-25T13:04:24.821Z,2.25
2022-07-25T13:06:54.469Z,2.88
2022-07-25T13:09:23.569Z,2.60
2022-07-25T13:11:52.225Z,2.30
2022-07-25T13:14:20.474Z,3.10
2022-07-25T13:16:50.791Z,2.90
2022-07-25T13:19:19.224Z,3.17
2022-07-25T13:21:49.582Z,3.15
2022-07-25T13:24:18.011Z,2.95
2022-07-25T13:26:46.835Z,2.95
2022-07-25T13:29:16.833Z,3.40
2022-07-25T13:31:48.504Z,2.70
2022-07-25T13:34:26.495Z,2.45
2022-07-25T13:36:54.403Z,3.05
2022-07-25T13:39:28.068Z,2.90
2022-07-25T13:41:55.610Z,3.17
2022-07-25T13:44:23.068Z,2.90
2022-07-25T13:46:50.935Z,3.42
2022-07-25T13:49:22.847Z,2.75
2022-07-25T13:51:52.143Z,3.53
2022-07-25T13:54:23.122Z,3.45
2022-07-25T13:56:50.801Z,2.97
2022-07-25T13:59:21.380Z,2.90
2022-07-25T14:01:54.878Z,2.70
2022-07-25T14:04:27.463Z,2.80
2022-07-25T14:07:01.261Z,2.75
2022-07-25T14:09:29.061Z,2.20
2022-07-25T14:11:56.680Z,2.67
2022-07-25T14:14:24.732Z,2.40
2022-07-25T14:16:57.626Z,2.47
2022-07-25T14:19:27.928Z,2.75
2022-07-25T14:21:56.719Z,3.28
2022-07-25T14:24:27.691Z,2.85
2022-07-25T14:26:55.939Z,2.88
2022-07-25T14:29:27.275Z,2.42
2022-07-25T14:32:04.582Z,2.78
2022-07-25T14:34:38.017Z,2.78
2022-07-25T14:37:09.799Z,2.50
2022-07-25T14:39:37.962Z,2.38
2022-07-25T14:42:06.768Z,1.92
2022-07-25T14:44:35.388Z,2.80
2022-07-25T14:49:41.354Z,2.38
2022-07-25T14:52:09.407Z,2.40
2022-07-25T14:54:37.889Z,2.65
2022-07-25T14:57:06.015Z,2.30
2022-07-25T14:59:34.651Z,2.55
2022-07-25T15:02:05.514Z,2.70
2022-07-25T15:04:36.555Z,2.30
2022-07-25T15:07:05.501Z,2.25
2022-07-25T15:09:33.424Z,2.20
2022-07-25T15:12:16.333Z,2.00
2022-07-25T15:14:46.038Z,2.15
2022-07-25T15:17:22.657Z,2.30
2022-07-25T15:19:50.226Z,2.20
2022-07-25T15:22:18.693Z,2.00
2022-07-25T15:25:27.173Z,2.33
2022-07-25T15:27:41.864Z,2.08
2022-07-25T15:30:29.058Z,2.25
2022-07-25T15:32:59.702Z,2.08
2022-07-25T15:35:35.483Z,2.25
2022-07-25T15:38:09.150Z,2.58
2022-07-25T15:40:39.135Z,2.55
2022-07-25T15:43:08.433Z,1.52
2022-07-25T15:45:56.567Z,2.08
2022-07-25T15:48:29.047Z,1.63
2022-07-25T15:50:59.019Z,1.85
2022-07-25T15:56:26.913Z,1.80
2022-07-25T15:59:25.095Z,1.85
2022-07-25T16:02:15.908Z,1.88
2022-07-25T16:05:35.898Z,1.98
2022-07-25T16:08:10.455Z,1.30
2022-07-25T16:10:50.650Z,1.35
2022-07-25T16:13:21.096Z,1.45
2022-07-25T16:15:51.935Z,1.75
2022-07-25T16:18:19.838Z,1.45
2022-07-25T16:20:48.568Z,1.33
2022-07-25T16:23:28.513Z,1.30
2022-07-25T16:25:56.128Z,1.30
2022-07-25T16:28:24.892Z,1.83
2022-07-25T16:30:53.213Z,1.98
2022-07-25T16:33:24.003Z,1.30
2022-07-25T16:35:53.054Z,1.35
2022-07-25T16:38:22.569Z,1.58
2022-07-25T16:40:53.136Z,1.80
2022-07-25T16:43:21.517Z,1.40
2022-07-25T16:45:49.071Z,1.60
2022-07-25T16:48:22.590Z,1.23
2022-07-25T16:50:50.188Z,1.63
2022-07-25T16:53:21.601Z,1.42
2022-07-25T16:55:49.713Z,1.52
2022-07-25T16:58:18.604Z,1.70
2022-07-25T17:00:50.457Z,1.30
2022-07-25T17:03:19.226Z,1.50
2022-07-25T17:05:47.550Z,1.92
2022-07-25T17:08:17.786Z,1.60
2022-07-25T17:13:13.460Z,1.45
2022-07-25T17:15:43.448Z,1.30
2022-07-25T17:18:15.688Z,1.70
2022-07-25T17:20:54.813Z,1.63
2022-07-25T17:23:23.481Z,1.70
2022-07-25T17:25:51.105Z,1.60
2022-07-25T17:28:21.434Z,1.90
2022-07-25T17:33:21.298Z,1.80
2022-07-25T17:35:54.021Z,1.65
2022-07-25T17:38:26.337Z,1.58
2022-07-25T17:40:56.353Z,2.10
2022-07-25T17:43:24.746Z,1.30
2022-07-25T17:45:52.657Z,1.60
2022-07-25T17:48:21.746Z,1.92
2022-07-25T17:50:49.744Z,1.13
2022-07-25T17:53:18.247Z,2.15
2022-07-25T17:55:47.037Z,2.25
2022-07-25T17:58:15.106Z,1.60
2022-07-25T18:00:47.219Z,1.83
2022-07-25T18:03:22.254Z,1.50
2022-07-25T18:05:50.105Z,1.67
2022-07-25T18:08:18.110Z,1.40
2022-07-25T18:10:46.551Z,2.13
2022-07-25T18:13:15.325Z,1.40
2022-07-25T18:15:47.709Z,1.20
2022-07-25T18:18:20.586Z,1.33
2022-07-25T18:20:49.682Z,2.70
2022-07-25T18:23:18.495Z,1.20
2022-07-25T18:25:46.523Z,1.23
2022-07-25T18:28:15.180Z,1.60
2022-07-25T18:30:42.844Z,1.02
2022-07-25T18:33:12.326Z,1.50
2022-07-25T18:35:40.558Z,1.30
2022-07-25T18:38:08.820Z,1.80
2022-07-25T18:40:39.636Z,1.52
2022-07-25T18:43:08.909Z,1.70
2022-07-25T18:45:38.210Z,1.70
2022-07-25T18:48:07.020Z,1.52
2022-07-25T18:50:35.468Z,1.48
2022-07-25T18:53:03.466Z,1.50
2022-07-25T18:55:31.194Z,1.50
2022-07-25T18:58:00.467Z,1.48
2022-07-25T19:00:28.357Z,1.92
2022-07-25T19:02:56.683Z,1.48
2022-07-25T19:05:25.315Z,2.08
2022-07-25T19:07:53.774Z,1.67
2022-07-25T19:10:22.324Z,1.60
2022-07-25T19:12:52.604Z,1.60
2022-07-25T19:15:20.619Z,2.65
2022-07-25T19:17:48.553Z,1.60
2022-07-25T19:20:17.218Z,2.67
2022-07-25T19:22:45.844Z,1.55
2022-07-25T19:25:15.468Z,2.17
2022-07-25T19:27:45.244Z,1.88
2022-07-25T19:30:17.609Z,1.65
2022-07-25T19:32:46.735Z,1.90
2022-07-25T19:35:26.199Z,2.25
2022-07-25T19:37:54.080Z,2.10
2022-07-25T19:40:24.382Z,1.77
2022-07-25T19:42:51.698Z,1.85
2022-07-25T19:45:19.350Z,2.00
2022-07-25T19:47:48.186Z,1.90
2022-07-25T19:50:17.230Z,1.95
2022-07-25T19:52:49.505Z,1.90
2022-07-25T19:55:17.353Z,1.90
2022-07-25T19:57:47.177Z,1.67
2022-07-25T20:00:15.448Z,1.70
2022-07-25T20:02:45.848Z,1.52
2022-07-25T20:05:17.099Z,2.20
2022-07-25T20:07:47.568Z,1.50
2022-07-25T20:10:18.070Z,1.67
2022-07-25T20:12:49.826Z,1.98
2022-07-25T20:15:17.328Z,1.75
2022-07-25T20:17:45.735Z,1.48
2022-07-25T20:20:15.635Z,1.75
2022-07-25T20:22:45.760Z,1.70
2022-07-25T20:25:16.936Z,1.80
2022-07-25T20:27:45.487Z,1.85
2022-07-25T20:30:18.174Z,2.10
2022-07-25T20:32:48.301Z,2.22
2022-07-25T20:35:19.299Z,1.63
2022-07-25T20:37:50.479Z,1.88
2022-07-25T20:40:19.790Z,1.88
2022-07-25T20:42:48.046Z,1.63
2022-07-25T20:45:17.172Z,1.88
2022-07-25T20:47:45.635Z,1.40
2022-07-25T20:50:13.770Z,1.85
2022-07-25T20:52:41.198Z,1.60
2022-07-25T20:55:10.057Z,2.00
2022-07-25T20:57:38.777Z,2.00
2022-07-25T21:00:08.253Z,2.30
2022-07-25T21:02:37.006Z,1.90
2022-07-25T21:05:06.369Z,1.70
2022-07-25T21:07:33.885Z,2.22
2022-07-25T21:10:01.922Z,1.70
2022-07-25T21:12:32.729Z,2.17
2022-07-25T21:15:01.401Z,1.60
2022-07-25T21:17:31.140Z,1.90
2022-07-25T21:19:59.402Z,1.60
2022-07-25T21:22:28.151Z,1.75
2022-07-25T21:24:56.858Z,1.67
2022-07-25T21:27:25.084Z,1.58
2022-07-25T21:29:54.565Z,1.50
2022-07-25T21:32:25.976Z,1.63
2022-07-25T21:34:55.799Z,1.67
2022-07-25T21:37:24.147Z,1.70
2022-07-25T21:39:52.077Z,1.30
2022-07-25T21:42:20.529Z,1.63
2022-07-25T21:44:47.665Z,1.50
2022-07-25T21:47:19.598Z,1.30
2022-07-25T21:50:06.047Z,1.40
2022-07-25T21:52:41.389Z,1.45
2022-07-25T21:55:10.443Z,1.50
2022-07-25T21:57:37.927Z,1.60
2022-07-25T22:00:13.961Z,1.42
2022-07-25T22:02:46.622Z,1.50
2022-07-25T22:05:20.475Z,1.85
2022-07-25T22:07:49.062Z,1.58
2022-07-25T22:10:22.178Z,1.50
2022-07-25T22:12:49.976Z,1.77
2022-07-25T22:15:17.488Z,1.38
2022-07-25T22:17:49.021Z,1.52
2022-07-25T22:20:18.758Z,1.67
2022-07-25T22:22:48.333Z,1.50
2022-07-25T22:25:21.379Z,1.30
2022-07-25T22:27:48.894Z,1.50
2022-07-25T22:30:19.365Z,1.38
2022-07-25T22:32:49.776Z,1.77
2022-07-25T22:35:17.827Z,2.00
2022-07-25T22:37:47.970Z,1.58
2022-07-25T22:40:16.691Z,1.27
2022-07-25T22:42:44.884Z,1.70
2022-07-25T22:45:13.279Z,2.17
2022-07-25T22:47:42.160Z,1.60
2022-07-25T22:50:10.231Z,1.70
2022-07-25T22:52:38.981Z,1.50
2022-07-25T22:55:06.881Z,2.10
2022-07-25T22:57:36.755Z,1.65
2022-07-25T23:00:10.055Z,1.75
2022-07-25T23:02:38.639Z,1.70
2022-07-25T23:05:07.577Z,1.80
2022-07-25T23:07:36.019Z,1.63
2022-07-25T23:10:07.445Z,1.23
2022-07-25T23:12:36.059Z,1.70
2022-07-25T23:15:04.323Z,1.90
2022-07-25T23:17:31.810Z,1.95
2022-07-25T23:19:59.385Z,1.42
2022-07-25T23:22:29.050Z,1.80
2022-07-25T23:24:57.449Z,1.83
2022-07-25T23:27:25.972Z,2.00
2022-07-25T23:29:53.669Z,1.65
2022-07-25T23:32:22.084Z,1.67
2022-07-25T23:34:50.361Z,2.10
2022-07-25T23:37:18.828Z,2.35
2022-07-25T23:39:50.237Z,2.08
2022-07-25T23:44:47.406Z,2.05
2022-07-25T23:47:16.280Z,1.90
2022-07-25T23:49:48.614Z,1.98
2022-07-25T23:52:22.408Z,2.17
2022-07-25T23:54:50.181Z,2.10
2022-07-25T23:57:20.682Z,2.10
2022-07-25T23:59:48.550Z,2.67
